sensor_id;sensor_type;location;lat;lon;timestamp;P1;durP1;ratioP1;P2;durP2;ratioP2
15130;SDS011;7666;50.920;4.628;2022-09-28T00:02:36;3.67;;;3.27;;
15130;SDS011;7666;50.920;4.628;2022-09-28T00:05:22;4.13;;;3.50;;
15130;SDS011;7666;50.920;4.628;2022-09-28T00:08:12;4.53;;;3.63;;
15130;SDS011;7666;50.920;4.628;2022-09-28T00:10:58;5.30;;;4.30;;
15130;SDS011;7666;50.920;4.628;2022-09-28T00:13:44;8.87;;;4.53;;
15130;SDS011;7666;50.920;4.628;2022-09-28T00:16:34;5.70;;;5.03;;
15130;SDS011;7666;50.920;4.628;2022-09-28T00:19:25;7.57;;;6.63;;
15130;SDS011;7666;50.920;4.628;2022-09-28T00:22:11;8.47;;;6.37;;
15130;SDS011;7666;50.920;4.628;2022-09-28T00:24:57;9.03;;;6.97;;
15130;SDS011;7666;50.920;4.628;2022-09-28T00:27:48;6.03;;;5.53;;
15130;SDS011;7666;50.920;4.628;2022-09-28T00:30:34;6.53;;;5.83;;
15130;SDS011;7666;50.920;4.628;2022-09-28T00:33:20;6.03;;;5.43;;
15130;SDS011;7666;50.920;4.628;2022-09-28T00:36:06;6.37;;;5.77;;
15130;SDS011;7666;50.920;4.628;2022-09-28T00:38:53;6.73;;;5.63;;
15130;SDS011;7666;50.920;4.628;2022-09-28T00:41:41;6.03;;;5.30;;
15130;SDS011;7666;50.920;4.628;2022-09-28T00:50:42;7.60;;;5.80;;
15130;SDS011;7666;50.920;4.628;2022-09-28T00:53:30;5.73;;;4.87;;
15130;SDS011;7666;50.920;4.628;2022-09-28T00:56:19;7.97;;;6.10;;
15130;SDS011;7666;50.920;4.628;2022-09-28T00:59:08;7.00;;;6.30;;
15130;SDS011;7666;50.920;4.628;2022-09-28T01:01:54;6.13;;;5.53;;
15130;SDS011;7666;50.920;4.628;2022-09-28T01:04:40;7.77;;;6.60;;
15130;SDS011;7666;50.920;4.628;2022-09-28T01:07:26;7.27;;;5.73;;
15130;SDS011;7666;50.920;4.628;2022-09-28T01:10:13;6.53;;;5.93;;
15130;SDS011;7666;50.920;4.628;2022-09-28T01:12:59;7.17;;;6.47;;
15130;SDS011;7666;50.920;4.628;2022-09-28T01:15:50;8.57;;;6.70;;
15130;SDS011;7666;50.920;4.628;2022-09-28T01:25:54;8.20;;;6.17;;
15130;SDS011;7666;50.920;4.628;2022-09-28T01:28:24;7.50;;;6.67;;
15130;SDS011;7666;50.920;4.628;2022-09-28T01:31:14;7.10;;;6.40;;
15130;SDS011;7666;50.920;4.628;2022-09-28T01:34:04;7.70;;;6.17;;
15130;SDS011;7666;50.920;4.628;2022-09-28T01:37:01;7.20;;;6.40;;
15130;SDS011;7666;50.920;4.628;2022-09-28T01:39:53;8.20;;;6.47;;
15130;SDS011;7666;50.920;4.628;2022-09-28T01:42:46;6.90;;;5.83;;
15130;SDS011;7666;50.920;4.628;2022-09-28T01:45:52;6.90;;;6.20;;
15130;SDS011;7666;50.920;4.628;2022-09-28T01:51:54;9.33;;;5.80;;
15130;SDS011;7666;50.920;4.628;2022-09-28T01:54:52;7.20;;;5.87;;
15130;SDS011;7666;50.920;4.628;2022-09-28T02:00:52;6.20;;;5.60;;
15130;SDS011;7666;50.920;4.628;2022-09-28T02:03:48;8.33;;;5.53;;
15130;SDS011;7666;50.920;4.628;2022-09-28T02:06:45;6.00;;;5.30;;
15130;SDS011;7666;50.920;4.628;2022-09-28T02:09:38;7.50;;;5.50;;
15130;SDS011;7666;50.920;4.628;2022-09-28T02:12:33;5.93;;;5.33;;
15130;SDS011;7666;50.920;4.628;2022-09-28T02:15:25;5.50;;;4.90;;
15130;SDS011;7666;50.920;4.628;2022-09-28T02:18:20;6.03;;;4.93;;
15130;SDS011;7666;50.920;4.628;2022-09-28T02:21:14;7.80;;;4.83;;
15130;SDS011;7666;50.920;4.628;2022-09-28T02:24:09;7.10;;;4.80;;
15130;SDS011;7666;50.920;4.628;2022-09-28T02:30:06;6.47;;;4.50;;
15130;SDS011;7666;50.920;4.628;2022-09-28T02:32:58;6.43;;;4.60;;
15130;SDS011;7666;50.920;4.628;2022-09-28T02:35:47;8.27;;;5.00;;
15130;SDS011;7666;50.920;4.628;2022-09-28T02:38:36;5.10;;;4.60;;
15130;SDS011;7666;50.920;4.628;2022-09-28T03:00:24;8.13;;;5.53;;
15130;SDS011;7666;50.920;4.628;2022-09-28T03:03:28;6.07;;;4.80;;
15130;SDS011;7666;50.920;4.628;2022-09-28T03:06:23;6.07;;;5.10;;
15130;SDS011;7666;50.920;4.628;2022-09-28T03:12:10;8.83;;;5.60;;
15130;SDS011;7666;50.920;4.628;2022-09-28T03:15:09;9.00;;;5.73;;
15130;SDS011;7666;50.920;4.628;2022-09-28T03:17:59;9.03;;;5.80;;
15130;SDS011;7666;50.920;4.628;2022-09-28T03:20:45;6.97;;;6.10;;
15130;SDS011;7666;50.920;4.628;2022-09-28T03:23:33;7.30;;;5.37;;
15130;SDS011;7666;50.920;4.628;2022-09-28T03:26:19;6.23;;;5.00;;
15130;SDS011;7666;50.920;4.628;2022-09-28T03:29:05;7.97;;;4.30;;
15130;SDS011;7666;50.920;4.628;2022-09-28T03:31:51;7.30;;;4.50;;
15130;SDS011;7666;50.920;4.628;2022-09-28T03:34:37;4.47;;;4.00;;
15130;SDS011;7666;50.920;4.628;2022-09-28T03:37:23;5.20;;;4.17;;
15130;SDS011;7666;50.920;4.628;2022-09-28T03:40:10;4.30;;;3.53;;
15130;SDS011;7666;50.920;4.628;2022-09-28T03:42:56;4.67;;;4.17;;
15130;SDS011;7666;50.920;4.628;2022-09-28T03:45:50;5.77;;;3.97;;
15130;SDS011;7666;50.920;4.628;2022-09-28T03:48:38;6.00;;;3.50;;
15130;SDS011;7666;50.920;4.628;2022-09-28T03:51:25;4.60;;;3.53;;
15130;SDS011;7666;50.920;4.628;2022-09-28T03:54:11;7.67;;;3.53;;
15130;SDS011;7666;50.920;4.628;2022-09-28T03:56:57;4.90;;;3.83;;
15130;SDS011;7666;50.920;4.628;2022-09-28T03:59:43;5.53;;;3.33;;
15130;SDS011;7666;50.920;4.628;2022-09-28T04:02:29;4.90;;;3.30;;
15130;SDS011;7666;50.920;4.628;2022-09-28T04:05:15;5.67;;;3.33;;
15130;SDS011;7666;50.920;4.628;2022-09-28T04:08:01;4.90;;;2.80;;
15130;SDS011;7666;50.920;4.628;2022-09-28T04:10:47;6.57;;;2.87;;
15130;SDS011;7666;50.920;4.628;2022-09-28T04:13:33;4.10;;;2.90;;
15130;SDS011;7666;50.920;4.628;2022-09-28T04:16:18;5.17;;;2.80;;
15130;SDS011;7666;50.920;4.628;2022-09-28T04:19:04;2.93;;;2.40;;
15130;SDS011;7666;50.920;4.628;2022-09-28T04:21:50;4.40;;;2.73;;
15130;SDS011;7666;50.920;4.628;2022-09-28T04:24:36;4.77;;;2.80;;
15130;SDS011;7666;50.920;4.628;2022-09-28T04:27:23;3.40;;;3.10;;
15130;SDS011;7666;50.920;4.628;2022-09-28T04:30:28;5.67;;;4.13;;
15130;SDS011;7666;50.920;4.628;2022-09-28T04:33:14;4.90;;;3.10;;
15130;SDS011;7666;50.920;4.628;2022-09-28T04:36:00;5.60;;;2.97;;
15130;SDS011;7666;50.920;4.628;2022-09-28T04:38:46;3.90;;;2.70;;
15130;SDS011;7666;50.920;4.628;2022-09-28T04:41:32;7.40;;;2.50;;
15130;SDS011;7666;50.920;4.628;2022-09-28T04:44:18;5.00;;;2.30;;
15130;SDS011;7666;50.920;4.628;2022-09-28T04:47:04;4.90;;;2.37;;
15130;SDS011;7666;50.920;4.628;2022-09-28T04:49:50;4.50;;;2.37;;
15130;SDS011;7666;50.920;4.628;2022-09-28T04:52:36;2.60;;;1.97;;
15130;SDS011;7666;50.920;4.628;2022-09-28T04:55:22;3.70;;;2.23;;
15130;SDS011;7666;50.920;4.628;2022-09-28T04:58:08;4.43;;;2.23;;
15130;SDS011;7666;50.920;4.628;2022-09-28T05:00:58;3.90;;;2.80;;
15130;SDS011;7666;50.920;4.628;2022-09-28T05:03:45;7.60;;;2.90;;
15130;SDS011;7666;50.920;4.628;2022-09-28T05:06:31;6.87;;;3.27;;
15130;SDS011;7666;50.920;4.628;2022-09-28T05:09:17;3.40;;;2.00;;
15130;SDS011;7666;50.920;4.628;2022-09-28T05:12:03;3.80;;;2.00;;
15130;SDS011;7666;50.920;4.628;2022-09-28T05:14:49;3.80;;;2.00;;
15130;SDS011;7666;50.920;4.628;2022-09-28T05:17:35;3.77;;;1.70;;
15130;SDS011;7666;50.920;4.628;2022-09-28T05:20:21;3.50;;;1.90;;
15130;SDS011;7666;50.920;4.628;2022-09-28T05:23:10;2.70;;;1.90;;
15130;SDS011;7666;50.920;4.628;2022-09-28T05:25:59;3.40;;;1.87;;
15130;SDS011;7666;50.920;4.628;2022-09-28T05:28:46;2.53;;;1.60;;
15130;SDS011;7666;50.920;4.628;2022-09-28T05:31:32;3.17;;;1.90;;
15130;SDS011;7666;50.920;4.628;2022-09-28T05:34:17;2.80;;;1.80;;
15130;SDS011;7666;50.920;4.628;2022-09-28T05:37:03;3.80;;;1.93;;
15130;SDS011;7666;50.920;4.628;2022-09-28T05:39:49;3.83;;;1.93;;
15130;SDS011;7666;50.920;4.628;2022-09-28T05:42:35;3.13;;;1.77;;
15130;SDS011;7666;50.920;4.628;2022-09-28T05:45:21;3.87;;;2.00;;
15130;SDS011;7666;50.920;4.628;2022-09-28T05:48:07;3.77;;;2.10;;
15130;SDS011;7666;50.920;4.628;2022-09-28T05:50:53;2.77;;;2.10;;
15130;SDS011;7666;50.920;4.628;2022-09-28T05:53:40;3.50;;;2.60;;
15130;SDS011;7666;50.920;4.628;2022-09-28T05:56:28;6.07;;;2.20;;
15130;SDS011;7666;50.920;4.628;2022-09-28T05:59:15;2.53;;;1.83;;
15130;SDS011;7666;50.920;4.628;2022-09-28T06:02:01;3.87;;;1.27;;
15130;SDS011;7666;50.920;4.628;2022-09-28T06:04:48;5.83;;;1.40;;
15130;SDS011;7666;50.920;4.628;2022-09-28T06:07:35;3.13;;;1.23;;
15130;SDS011;7666;50.920;4.628;2022-09-28T06:10:21;2.40;;;1.30;;
15130;SDS011;7666;50.920;4.628;2022-09-28T06:13:09;3.77;;;1.67;;
15130;SDS011;7666;50.920;4.628;2022-09-28T06:15:56;2.23;;;1.10;;
15130;SDS011;7666;50.920;4.628;2022-09-28T06:18:42;3.17;;;1.37;;
15130;SDS011;7666;50.920;4.628;2022-09-28T06:21:28;3.20;;;1.17;;
15130;SDS011;7666;50.920;4.628;2022-09-28T06:24:14;2.03;;;1.40;;
15130;SDS011;7666;50.920;4.628;2022-09-28T06:27:00;2.50;;;1.50;;
15130;SDS011;7666;50.920;4.628;2022-09-28T06:29:46;3.10;;;1.67;;
15130;SDS011;7666;50.920;4.628;2022-09-28T06:32:32;3.47;;;1.97;;
15130;SDS011;7666;50.920;4.628;2022-09-28T06:35:18;4.63;;;2.27;;
15130;SDS011;7666;50.920;4.628;2022-09-28T06:38:04;2.77;;;1.87;;
15130;SDS011;7666;50.920;4.628;2022-09-28T06:40:49;3.37;;;2.20;;
15130;SDS011;7666;50.920;4.628;2022-09-28T06:43:35;5.53;;;3.00;;
15130;SDS011;7666;50.920;4.628;2022-09-28T06:46:24;4.27;;;2.57;;
15130;SDS011;7666;50.920;4.628;2022-09-28T06:49:09;4.10;;;2.20;;
15130;SDS011;7666;50.920;4.628;2022-09-28T06:51:55;5.10;;;2.40;;
15130;SDS011;7666;50.920;4.628;2022-09-28T06:54:41;3.00;;;2.03;;
15130;SDS011;7666;50.920;4.628;2022-09-28T06:57:27;4.33;;;2.40;;
15130;SDS011;7666;50.920;4.628;2022-09-28T07:00:13;3.80;;;2.40;;
15130;SDS011;7666;50.920;4.628;2022-09-28T07:03:04;4.53;;;2.67;;
15130;SDS011;7666;50.920;4.628;2022-09-28T07:05:52;4.43;;;2.67;;
15130;SDS011;7666;50.920;4.628;2022-09-28T07:08:40;4.43;;;2.60;;
15130;SDS011;7666;50.920;4.628;2022-09-28T07:11:26;6.47;;;2.90;;
15130;SDS011;7666;50.920;4.628;2022-09-28T07:14:13;5.53;;;2.63;;
15130;SDS011;7666;50.920;4.628;2022-09-28T07:16:59;3.47;;;2.40;;
15130;SDS011;7666;50.920;4.628;2022-09-28T07:19:45;6.10;;;3.10;;
15130;SDS011;7666;50.920;4.628;2022-09-28T07:22:32;4.30;;;2.70;;
15130;SDS011;7666;50.920;4.628;2022-09-28T07:25:19;5.07;;;2.63;;
15130;SDS011;7666;50.920;4.628;2022-09-28T07:28:05;4.80;;;2.80;;
15130;SDS011;7666;50.920;4.628;2022-09-28T07:30:51;5.67;;;2.93;;
15130;SDS011;7666;50.920;4.628;2022-09-28T07:33:40;6.17;;;3.00;;
15130;SDS011;7666;50.920;4.628;2022-09-28T07:36:26;6.00;;;2.77;;
15130;SDS011;7666;50.920;4.628;2022-09-28T07:39:14;4.70;;;3.10;;
15130;SDS011;7666;50.920;4.628;2022-09-28T07:42:00;4.00;;;3.07;;
15130;SDS011;7666;50.920;4.628;2022-09-28T07:44:45;6.87;;;3.40;;
15130;SDS011;7666;50.920;4.628;2022-09-28T07:47:32;6.90;;;3.70;;
15130;SDS011;7666;50.920;4.628;2022-09-28T07:50:17;6.23;;;3.90;;
15130;SDS011;7666;50.920;4.628;2022-09-28T07:53:05;6.57;;;3.73;;
15130;SDS011;7666;50.920;4.628;2022-09-28T07:58:46;8.37;;;4.20;;
15130;SDS011;7666;50.920;4.628;2022-09-28T08:01:33;4.90;;;4.00;;
15130;SDS011;7666;50.920;4.628;2022-09-28T08:04:19;6.83;;;3.93;;
15130;SDS011;7666;50.920;4.628;2022-09-28T08:07:09;6.47;;;3.67;;
15130;SDS011;7666;50.920;4.628;2022-09-28T08:09:55;6.67;;;3.50;;
15130;SDS011;7666;50.920;4.628;2022-09-28T08:12:41;11.13;;;4.03;;
15130;SDS011;7666;50.920;4.628;2022-09-28T08:15:31;7.33;;;3.90;;
15130;SDS011;7666;50.920;4.628;2022-09-28T08:18:21;8.00;;;3.47;;
15130;SDS011;7666;50.920;4.628;2022-09-28T08:21:08;7.97;;;3.90;;
15130;SDS011;7666;50.920;4.628;2022-09-28T08:24:14;6.83;;;3.73;;
15130;SDS011;7666;50.920;4.628;2022-09-28T08:27:01;8.67;;;4.00;;
15130;SDS011;7666;50.920;4.628;2022-09-28T08:29:47;9.43;;;3.70;;
15130;SDS011;7666;50.920;4.628;2022-09-28T08:32:32;7.47;;;4.20;;
15130;SDS011;7666;50.920;4.628;2022-09-28T08:35:20;9.27;;;4.33;;
15130;SDS011;7666;50.920;4.628;2022-09-28T08:38:06;8.20;;;4.00;;
15130;SDS011;7666;50.920;4.628;2022-09-28T08:44:20;7.83;;;3.70;;
15130;SDS011;7666;50.920;4.628;2022-09-28T08:47:15;9.30;;;3.40;;
15130;SDS011;7666;50.920;4.628;2022-09-28T08:50:30;7.00;;;3.70;;
15130;SDS011;7666;50.920;4.628;2022-09-28T08:56:30;4.73;;;3.20;;
15130;SDS011;7666;50.920;4.628;2022-09-28T08:59:30;7.07;;;3.07;;
15130;SDS011;7666;50.920;4.628;2022-09-28T09:02:40;6.33;;;3.27;;
15130;SDS011;7666;50.920;4.628;2022-09-28T09:05:33;5.13;;;2.93;;
15130;SDS011;7666;50.920;4.628;2022-09-28T09:18:03;6.43;;;2.73;;
15130;SDS011;7666;50.920;4.628;2022-09-28T09:21:29;6.73;;;2.77;;
15130;SDS011;7666;50.920;4.628;2022-09-28T09:34:06;6.27;;;2.50;;
15130;SDS011;7666;50.920;4.628;2022-09-28T09:45:55;6.33;;;2.13;;
15130;SDS011;7666;50.920;4.628;2022-09-28T09:58:17;4.30;;;1.80;;
15130;SDS011;7666;50.920;4.628;2022-09-28T10:01:11;4.67;;;1.93;;
15130;SDS011;7666;50.920;4.628;2022-09-28T10:04:00;6.00;;;1.77;;
15130;SDS011;7666;50.920;4.628;2022-09-28T10:06:50;4.20;;;1.70;;
15130;SDS011;7666;50.920;4.628;2022-09-28T10:09:42;4.90;;;2.00;;
15130;SDS011;7666;50.920;4.628;2022-09-28T10:12:30;6.10;;;2.17;;
15130;SDS011;7666;50.920;4.628;2022-09-28T10:15:22;4.93;;;1.70;;
15130;SDS011;7666;50.920;4.628;2022-09-28T10:18:18;4.33;;;1.50;;
15130;SDS011;7666;50.920;4.628;2022-09-28T10:21:05;3.97;;;1.80;;
15130;SDS011;7666;50.920;4.628;2022-09-28T10:23:56;7.57;;;1.60;;
15130;SDS011;7666;50.920;4.628;2022-09-28T10:26:46;4.47;;;1.60;;
15130;SDS011;7666;50.920;4.628;2022-09-28T10:29:38;5.27;;;1.87;;
15130;SDS011;7666;50.920;4.628;2022-09-28T10:32:43;5.23;;;1.37;;
15130;SDS011;7666;50.920;4.628;2022-09-28T10:35:42;3.80;;;1.47;;
15130;SDS011;7666;50.920;4.628;2022-09-28T10:38:28;3.83;;;1.30;;
15130;SDS011;7666;50.920;4.628;2022-09-28T10:41:15;6.03;;;1.30;;
15130;SDS011;7666;50.920;4.628;2022-09-28T10:44:10;2.90;;;1.63;;
15130;SDS011;7666;50.920;4.628;2022-09-28T10:47:02;3.50;;;1.13;;
15130;SDS011;7666;50.920;4.628;2022-09-28T10:49:52;2.47;;;1.00;;
15130;SDS011;7666;50.920;4.628;2022-09-28T10:52:41;3.87;;;1.03;;
15130;SDS011;7666;50.920;4.628;2022-09-28T10:55:30;1.43;;;0.90;;
15130;SDS011;7666;50.920;4.628;2022-09-28T10:58:25;5.20;;;1.30;;
15130;SDS011;7666;50.920;4.628;2022-09-28T11:01:18;3.30;;;1.20;;
15130;SDS011;7666;50.920;4.628;2022-09-28T11:04:13;4.13;;;1.20;;
15130;SDS011;7666;50.920;4.628;2022-09-28T11:07:15;5.60;;;1.30;;
15130;SDS011;7666;50.920;4.628;2022-09-28T11:10:15;5.77;;;1.13;;
15130;SDS011;7666;50.920;4.628;2022-09-28T11:13:13;3.70;;;0.90;;
15130;SDS011;7666;50.920;4.628;2022-09-28T11:15:59;5.70;;;0.77;;
15130;SDS011;7666;50.920;4.628;2022-09-28T11:18:45;2.40;;;0.60;;
15130;SDS011;7666;50.920;4.628;2022-09-28T11:21:41;3.17;;;0.60;;
15130;SDS011;7666;50.920;4.628;2022-09-28T11:24:28;1.07;;;0.57;;
15130;SDS011;7666;50.920;4.628;2022-09-28T11:27:21;1.30;;;0.50;;
15130;SDS011;7666;50.920;4.628;2022-09-28T11:30:23;2.67;;;0.80;;
15130;SDS011;7666;50.920;4.628;2022-09-28T11:33:32;2.77;;;0.53;;
15130;SDS011;7666;50.920;4.628;2022-09-28T11:36:23;4.03;;;0.80;;
15130;SDS011;7666;50.920;4.628;2022-09-28T11:45:48;2.30;;;0.93;;
15130;SDS011;7666;50.920;4.628;2022-09-28T11:48:45;1.80;;;0.67;;
15130;SDS011;7666;50.920;4.628;2022-09-28T11:51:35;5.03;;;1.00;;
15130;SDS011;7666;50.920;4.628;2022-09-28T11:54:26;5.03;;;1.20;;
15130;SDS011;7666;50.920;4.628;2022-09-28T11:57:19;4.00;;;1.00;;
15130;SDS011;7666;50.920;4.628;2022-09-28T12:00:26;1.70;;;1.00;;
15130;SDS011;7666;50.920;4.628;2022-09-28T12:03:24;4.17;;;1.30;;
15130;SDS011;7666;50.920;4.628;2022-09-28T12:06:24;3.60;;;1.30;;
15130;SDS011;7666;50.920;4.628;2022-09-28T12:09:26;5.57;;;1.70;;
15130;SDS011;7666;50.920;4.628;2022-09-28T12:12:32;2.97;;;1.10;;
15130;SDS011;7666;50.920;4.628;2022-09-28T12:15:21;4.37;;;1.10;;
15130;SDS011;7666;50.920;4.628;2022-09-28T12:18:14;2.60;;;0.97;;
15130;SDS011;7666;50.920;4.628;2022-09-28T12:27:54;4.43;;;1.20;;
15130;SDS011;7666;50.920;4.628;2022-09-28T12:30:46;3.63;;;1.30;;
15130;SDS011;7666;50.920;4.628;2022-09-28T12:33:34;2.80;;;0.90;;
15130;SDS011;7666;50.920;4.628;2022-09-28T12:36:27;2.37;;;1.00;;
15130;SDS011;7666;50.920;4.628;2022-09-28T12:43:15;3.00;;;0.90;;
15130;SDS011;7666;50.920;4.628;2022-09-28T13:10:46;2.13;;;1.00;;
15130;SDS011;7666;50.920;4.628;2022-09-28T13:13:45;2.77;;;0.97;;
15130;SDS011;7666;50.920;4.628;2022-09-28T13:26:08;2.80;;;0.97;;
15130;SDS011;7666;50.920;4.628;2022-09-28T13:29:17;4.43;;;1.20;;
15130;SDS011;7666;50.920;4.628;2022-09-28T13:32:05;2.47;;;0.80;;
15130;SDS011;7666;50.920;4.628;2022-09-28T13:34:53;1.73;;;0.90;;
15130;SDS011;7666;50.920;4.628;2022-09-28T13:37:40;3.27;;;0.83;;
15130;SDS011;7666;50.920;4.628;2022-09-28T13:46:59;4.57;;;0.97;;
15130;SDS011;7666;50.920;4.628;2022-09-28T14:11:22;1.57;;;1.00;;
15130;SDS011;7666;50.920;4.628;2022-09-28T14:17:32;3.53;;;1.20;;
15130;SDS011;7666;50.920;4.628;2022-09-28T14:20:09;2.07;;;1.20;;
15130;SDS011;7666;50.920;4.628;2022-09-28T14:23:10;1.83;;;1.20;;
15130;SDS011;7666;50.920;4.628;2022-09-28T14:35:05;3.93;;;1.17;;
15130;SDS011;7666;50.920;4.628;2022-09-28T14:38:05;2.90;;;0.90;;
15130;SDS011;7666;50.920;4.628;2022-09-28T14:41:40;1.70;;;0.83;;
15130;SDS011;7666;50.920;4.628;2022-09-28T14:44:26;2.03;;;0.70;;
15130;SDS011;7666;50.920;4.628;2022-09-28T14:47:31;2.90;;;0.90;;
15130;SDS011;7666;50.920;4.628;2022-09-28T14:50:37;2.10;;;0.90;;
15130;SDS011;7666;50.920;4.628;2022-09-28T14:53:23;2.13;;;0.70;;
15130;SDS011;7666;50.920;4.628;2022-09-28T14:56:10;3.53;;;1.03;;
15130;SDS011;7666;50.920;4.628;2022-09-28T14:58:58;2.83;;;0.90;;
15130;SDS011;7666;50.920;4.628;2022-09-28T15:01:46;2.47;;;0.80;;
15130;SDS011;7666;50.920;4.628;2022-09-28T15:04:48;2.73;;;0.93;;
15130;SDS011;7666;50.920;4.628;2022-09-28T15:08:01;2.00;;;1.00;;
15130;SDS011;7666;50.920;4.628;2022-09-28T15:10:50;3.70;;;1.03;;
15130;SDS011;7666;50.920;4.628;2022-09-28T15:13:36;1.60;;;0.90;;
15130;SDS011;7666;50.920;4.628;2022-09-28T15:16:24;4.30;;;1.00;;
15130;SDS011;7666;50.920;4.628;2022-09-28T15:22:16;2.50;;;0.93;;
15130;SDS011;7666;50.920;4.628;2022-09-28T15:25:07;2.33;;;1.00;;
15130;SDS011;7666;50.920;4.628;2022-09-28T15:27:59;3.80;;;1.20;;
15130;SDS011;7666;50.920;4.628;2022-09-28T15:30:58;4.17;;;1.00;;
15130;SDS011;7666;50.920;4.628;2022-09-28T15:33:48;3.90;;;0.90;;
15130;SDS011;7666;50.920;4.628;2022-09-28T15:36:52;2.83;;;0.80;;
15130;SDS011;7666;50.920;4.628;2022-09-28T15:39:40;2.80;;;0.90;;
15130;SDS011;7666;50.920;4.628;2022-09-28T15:42:26;3.90;;;0.90;;
15130;SDS011;7666;50.920;4.628;2022-09-28T15:48:18;3.97;;;0.90;;
15130;SDS011;7666;50.920;4.628;2022-09-28T15:51:10;2.57;;;0.80;;
15130;SDS011;7666;50.920;4.628;2022-09-28T15:56:49;6.53;;;1.00;;
15130;SDS011;7666;50.920;4.628;2022-09-28T15:59:37;3.17;;;1.00;;
15130;SDS011;7666;50.920;4.628;2022-09-28T16:02:25;2.63;;;0.90;;
15130;SDS011;7666;50.920;4.628;2022-09-28T16:05:31;3.93;;;0.90;;
15130;SDS011;7666;50.920;4.628;2022-09-28T16:14:17;2.90;;;1.00;;
15130;SDS011;7666;50.920;4.628;2022-09-28T16:17:07;1.37;;;0.73;;
15130;SDS011;7666;50.920;4.628;2022-09-28T16:23:28;2.27;;;0.60;;
15130;SDS011;7666;50.920;4.628;2022-09-28T16:26:16;3.30;;;0.80;;
15130;SDS011;7666;50.920;4.628;2022-09-28T16:29:35;1.23;;;0.50;;
15130;SDS011;7666;50.920;4.628;2022-09-28T16:37:57;1.60;;;0.70;;
15130;SDS011;7666;50.920;4.628;2022-09-28T16:40:50;3.03;;;0.70;;
15130;SDS011;7666;50.920;4.628;2022-09-28T16:43:38;1.50;;;0.80;;
15130;SDS011;7666;50.920;4.628;2022-09-28T16:46:34;1.20;;;0.60;;
15130;SDS011;7666;50.920;4.628;2022-09-28T16:49:22;4.53;;;0.80;;
15130;SDS011;7666;50.920;4.628;2022-09-28T16:52:12;1.33;;;0.60;;
15130;SDS011;7666;50.920;4.628;2022-09-28T16:55:18;1.27;;;0.57;;
15130;SDS011;7666;50.920;4.628;2022-09-28T16:58:04;1.63;;;0.80;;
15130;SDS011;7666;50.920;4.628;2022-09-28T17:00:51;2.80;;;0.70;;
15130;SDS011;7666;50.920;4.628;2022-09-28T17:03:38;1.23;;;0.60;;
15130;SDS011;7666;50.920;4.628;2022-09-28T17:06:28;1.10;;;0.60;;
15130;SDS011;7666;50.920;4.628;2022-09-28T17:09:14;2.47;;;0.60;;
15130;SDS011;7666;50.920;4.628;2022-09-28T17:12:00;1.77;;;0.70;;
15130;SDS011;7666;50.920;4.628;2022-09-28T17:14:46;1.27;;;0.50;;
15130;SDS011;7666;50.920;4.628;2022-09-28T17:17:32;1.73;;;0.60;;
15130;SDS011;7666;50.920;4.628;2022-09-28T17:20:23;3.13;;;0.70;;
15130;SDS011;7666;50.920;4.628;2022-09-28T17:23:11;3.47;;;0.73;;
15130;SDS011;7666;50.920;4.628;2022-09-28T17:25:57;1.80;;;0.70;;
15130;SDS011;7666;50.920;4.628;2022-09-28T17:28:46;3.47;;;0.70;;
15130;SDS011;7666;50.920;4.628;2022-09-28T17:31:32;3.83;;;0.93;;
15130;SDS011;7666;50.920;4.628;2022-09-28T17:34:18;1.90;;;0.77;;
15130;SDS011;7666;50.920;4.628;2022-09-28T17:37:04;0.97;;;0.63;;
15130;SDS011;7666;50.920;4.628;2022-09-28T17:39:50;2.77;;;0.80;;
15130;SDS011;7666;50.920;4.628;2022-09-28T17:42:36;1.47;;;0.90;;
15130;SDS011;7666;50.920;4.628;2022-09-28T17:45:23;1.03;;;0.60;;
15130;SDS011;7666;50.920;4.628;2022-09-28T17:48:16;1.53;;;0.63;;
15130;SDS011;7666;50.920;4.628;2022-09-28T17:51:03;4.30;;;1.73;;
15130;SDS011;7666;50.920;4.628;2022-09-28T17:53:49;2.77;;;0.70;;
15130;SDS011;7666;50.920;4.628;2022-09-28T17:56:36;2.63;;;0.70;;
15130;SDS011;7666;50.920;4.628;2022-09-28T17:59:22;4.37;;;1.00;;
15130;SDS011;7666;50.920;4.628;2022-09-28T18:02:09;2.63;;;0.70;;
15130;SDS011;7666;50.920;4.628;2022-09-28T18:04:55;1.67;;;0.60;;
15130;SDS011;7666;50.920;4.628;2022-09-28T18:07:41;4.47;;;0.77;;
15130;SDS011;7666;50.920;4.628;2022-09-28T18:10:28;2.37;;;0.90;;
15130;SDS011;7666;50.920;4.628;2022-09-28T18:13:15;3.10;;;1.07;;
15130;SDS011;7666;50.920;4.628;2022-09-28T18:16:01;3.07;;;1.23;;
15130;SDS011;7666;50.920;4.628;2022-09-28T18:18:50;2.20;;;1.30;;
15130;SDS011;7666;50.920;4.628;2022-09-28T18:21:36;5.37;;;1.70;;
15130;SDS011;7666;50.920;4.628;2022-09-28T18:24:22;5.47;;;2.00;;
15130;SDS011;7666;50.920;4.628;2022-09-28T18:27:08;5.87;;;2.63;;
15130;SDS011;7666;50.920;4.628;2022-09-28T18:29:54;5.27;;;2.10;;
15130;SDS011;7666;50.920;4.628;2022-09-28T18:32:40;4.70;;;2.73;;
15130;SDS011;7666;50.920;4.628;2022-09-28T18:35:26;6.80;;;2.67;;
15130;SDS011;7666;50.920;4.628;2022-09-28T18:38:12;3.37;;;2.00;;
15130;SDS011;7666;50.920;4.628;2022-09-28T18:41:04;4.83;;;2.20;;
15130;SDS011;7666;50.920;4.628;2022-09-28T18:43:52;3.80;;;2.30;;
15130;SDS011;7666;50.920;4.628;2022-09-28T18:46:44;5.17;;;2.47;;
15130;SDS011;7666;50.920;4.628;2022-09-28T18:49:30;4.10;;;2.33;;
15130;SDS011;7666;50.920;4.628;2022-09-28T18:52:17;8.77;;;2.67;;
15130;SDS011;7666;50.920;4.628;2022-09-28T18:55:04;6.80;;;3.23;;
15130;SDS011;7666;50.920;4.628;2022-09-28T18:57:51;6.57;;;2.87;;
15130;SDS011;7666;50.920;4.628;2022-09-28T19:00:38;5.30;;;2.50;;
15130;SDS011;7666;50.920;4.628;2022-09-28T19:03:24;7.10;;;2.50;;
15130;SDS011;7666;50.920;4.628;2022-09-28T19:06:12;5.37;;;2.37;;
15130;SDS011;7666;50.920;4.628;2022-09-28T19:09:00;7.33;;;3.53;;
15130;SDS011;7666;50.920;4.628;2022-09-28T19:11:46;6.57;;;3.17;;
15130;SDS011;7666;50.920;4.628;2022-09-28T19:14:32;7.70;;;5.17;;
15130;SDS011;7666;50.920;4.628;2022-09-28T19:17:18;157.17;;;44.20;;
15130;SDS011;7666;50.920;4.628;2022-09-28T19:20:05;148.40;;;38.53;;
15130;SDS011;7666;50.920;4.628;2022-09-28T19:22:51;41.13;;;11.90;;
15130;SDS011;7666;50.920;4.628;2022-09-28T19:25:37;15.77;;;5.20;;
15130;SDS011;7666;50.920;4.628;2022-09-28T19:28:24;5.57;;;2.30;;
15130;SDS011;7666;50.920;4.628;2022-09-28T19:31:10;6.93;;;3.47;;
15130;SDS011;7666;50.920;4.628;2022-09-28T19:33:57;6.03;;;3.23;;
15130;SDS011;7666;50.920;4.628;2022-09-28T19:36:43;4.10;;;2.83;;
15130;SDS011;7666;50.920;4.628;2022-09-28T19:39:30;7.47;;;3.70;;
15130;SDS011;7666;50.920;4.628;2022-09-28T19:42:16;5.23;;;3.20;;
15130;SDS011;7666;50.920;4.628;2022-09-28T19:45:02;5.17;;;3.50;;
15130;SDS011;7666;50.920;4.628;2022-09-28T19:47:49;5.43;;;3.10;;
15130;SDS011;7666;50.920;4.628;2022-09-28T19:50:35;3.83;;;3.00;;
15130;SDS011;7666;50.920;4.628;2022-09-28T19:53:22;5.00;;;3.47;;
15130;SDS011;7666;50.920;4.628;2022-09-28T19:56:09;4.90;;;3.83;;
15130;SDS011;7666;50.920;4.628;2022-09-28T19:58:55;4.33;;;3.40;;
15130;SDS011;7666;50.920;4.628;2022-09-28T20:01:41;7.70;;;2.90;;
15130;SDS011;7666;50.920;4.628;2022-09-28T20:04:27;4.17;;;2.80;;
15130;SDS011;7666;50.920;4.628;2022-09-28T20:07:13;5.93;;;2.43;;
15130;SDS011;7666;50.920;4.628;2022-09-28T20:10:00;2.80;;;2.17;;
15130;SDS011;7666;50.920;4.628;2022-09-28T20:12:46;2.97;;;2.30;;
15130;SDS011;7666;50.920;4.628;2022-09-28T20:15:33;7.97;;;2.50;;
15130;SDS011;7666;50.920;4.628;2022-09-28T20:18:20;4.97;;;2.80;;
15130;SDS011;7666;50.920;4.628;2022-09-28T20:21:06;7.03;;;3.00;;
15130;SDS011;7666;50.920;4.628;2022-09-28T20:23:54;4.13;;;2.33;;
15130;SDS011;7666;50.920;4.628;2022-09-28T20:26:43;6.10;;;2.63;;
15130;SDS011;7666;50.920;4.628;2022-09-28T20:29:30;5.33;;;3.00;;
15130;SDS011;7666;50.920;4.628;2022-09-28T20:32:17;4.40;;;2.80;;
15130;SDS011;7666;50.920;4.628;2022-09-28T20:35:03;5.00;;;3.10;;
15130;SDS011;7666;50.920;4.628;2022-09-28T20:37:50;4.20;;;3.40;;
15130;SDS011;7666;50.920;4.628;2022-09-28T20:40:36;4.57;;;3.30;;
15130;SDS011;7666;50.920;4.628;2022-09-28T20:43:24;8.93;;;3.20;;
15130;SDS011;7666;50.920;4.628;2022-09-28T20:46:11;4.13;;;3.27;;